Time;durP1;ratioP1;P1;durP2;ratioP2;P2;SDS_P1;SDS_P2;PMS_P1;PMS_P2;Temp;Humidity;BMP_temperature;BMP_pressure;BME280_temperature;BME280_humidity;BME280_pressure;Samples;Min_cycle;Max_cycle;Signal;HPM_P1;HPM_P2
2023/03/14 00:01:26;;;;;;;22.30;10.80;;;;;;;-1.46;100.00;101671.65;104083;1296;2003353;-74
2023/03/14 00:03:55;;;;;;;25.30;11.80;;;;;;;-1.49;100.00;101668.38;105406;1296;22546;-74
2023/03/14 00:06:24;;;;;;;24.90;11.20;;;;;;;-1.54;100.00;101668.19;104359;1296;2003364;-75
2023/03/14 00:08:53;;;;;;;35.00;14.30;;;;;;;-1.57;100.00;101668.86;103956;1296;2003732;-74
2023/03/14 00:11:22;;;;;;;27.10;12.80;;;;;;;-1.61;100.00;101663.84;104124;1296;2004837;-74
2023/03/14 00:13:51;;;;;;;24.60;11.40;;;;;;;-1.63;100.00;101663.75;105446;1296;25271;-73
2023/03/14 00:16:25;;;;;;;32.80;15.10;;;;;;;-1.66;100.00;101666.13;105429;1296;25375;-74
2023/03/14 00:18:54;;;;;;;57.60;24.50;;;;;;;-1.67;100.00;101669.38;104240;1296;2003253;-75
2023/03/14 00:21:22;;;;;;;36.80;17.90;;;;;;;-1.67;100.00;101668.84;105501;1296;22547;-75
2023/03/14 00:23:54;;;;;;;33.50;15.20;;;;;;;-1.66;100.00;101674.11;104096;1296;2002811;-74
2023/03/14 00:26:22;;;;;;;21.90;11.40;;;;;;;-1.66;100.00;101671.61;104781;1296;1003087;-75
2023/03/14 00:28:51;;;;;;;21.60;8.90;;;;;;;-1.65;100.00;101674.43;105658;1296;22547;-75
2023/03/14 00:31:20;;;;;;;20.10;9.00;;;;;;;-1.66;100.00;101673.39;105730;1296;25380;-75
2023/03/14 00:33:52;;;;;;;22.10;8.10;;;;;;;-1.68;100.00;101671.70;105427;1296;22550;-74
2023/03/14 00:36:21;;;;;;;24.90;9.30;;;;;;;-1.69;100.00;101673.70;104679;1296;1003133;-74
2023/03/14 00:38:51;;;;;;;26.10;11.80;;;;;;;-1.72;100.00;101679.08;105655;1296;23834;-74
2023/03/14 00:41:22;;;;;;;19.50;9.20;;;;;;;-1.74;100.00;101683.02;104796;1296;1003757;-74
2023/03/14 00:43:52;;;;;;;14.40;5.90;;;;;;;-1.73;100.00;101679.98;105606;1296;25571;-74
2023/03/14 00:46:20;;;;;;;16.00;5.20;;;;;;;-1.71;100.00;101674.11;105684;1296;22665;-74
2023/03/14 00:48:50;;;;;;;12.60;4.50;;;;;;;-1.70;100.00;101676.72;105581;1296;25345;-74
2023/03/14 00:51:18;;;;;;;12.30;4.80;;;;;;;-1.68;100.00;101679.14;104697;1296;1019620;-76
2023/03/14 00:53:47;;;;;;;15.70;6.10;;;;;;;-1.68;100.00;101682.13;105535;1296;22545;-74
2023/03/14 00:56:16;;;;;;;18.30;6.60;;;;;;;-1.69;100.00;101687.30;104754;1296;1002899;-76
2023/03/14 00:58:45;;;;;;;16.80;6.30;;;;;;;-1.72;100.00;101690.92;104807;1296;1003833;-74
2023/03/14 01:01:17;;;;;;;12.60;4.80;;;;;;;-1.74;100.00;101689.92;105669;1296;25525;-74
2023/03/14 01:03:47;;;;;;;9.70;4.80;;;;;;;-1.75;100.00;101695.82;105463;1296;22647;-74
2023/03/14 01:06:22;;;;;;;14.00;5.20;;;;;;;-1.76;100.00;101697.44;104745;1296;1002860;-74
2023/03/14 01:08:52;;;;;;;9.90;4.10;;;;;;;-1.78;100.00;101706.14;104910;1296;1003201;-74
2023/03/14 01:11:28;;;;;;;7.20;3.10;;;;;;;-1.79;100.00;101706.00;104745;1296;1002896;-75
2023/03/14 01:13:58;;;;;;;5.70;2.90;;;;;;;-1.78;100.00;101701.93;104963;1296;1003035;-74
2023/03/14 01:16:33;;;;;;;5.50;2.80;;;;;;;-1.78;100.00;101711.80;105723;1296;26683;-77
2023/03/14 01:19:02;;;;;;;4.80;2.30;;;;;;;-1.78;100.00;101711.63;105686;1296;25278;-75
2023/03/14 01:21:33;;;;;;;6.10;2.50;;;;;;;-1.77;100.00;101714.98;105667;1296;23820;-74
2023/03/14 01:24:03;;;;;;;5.40;2.50;;;;;;;-1.77;100.00;101721.51;105478;1296;23680;-74
2023/03/14 01:26:35;;;;;;;4.60;2.70;;;;;;;-1.77;100.00;101723.98;107698;1296;22701;-74
2023/03/14 01:29:06;;;;;;;4.50;2.40;;;;;;;-1.78;100.00;101720.30;107617;1273;24275;-74
2023/03/14 01:31:36;;;;;;;5.20;2.90;;;;;;;-1.82;100.00;101717.79;106541;1296;24363;-75
2023/03/14 01:34:06;;;;;;;5.30;3.10;;;;;;;-1.86;100.00;101723.75;104690;1296;1003791;-75
2023/03/14 01:36:35;;;;;;;5.90;2.90;;;;;;;-1.90;100.00;101720.86;105649;1296;22549;-74
2023/03/14 01:39:08;;;;;;;3.70;2.90;;;;;;;-1.94;100.00;101717.81;104892;1296;1003408;-75
2023/03/14 01:41:39;;;;;;;5.40;3.00;;;;;;;-1.98;100.00;101722.02;104987;1296;1003085;-74
2023/03/14 01:44:11;;;;;;;;;;;;;;;-2.02;100.00;101720.38;104834;1296;1003333;-74
2023/03/14 01:46:42;;;;;;;10.30;4.70;;;;;;;-2.05;100.00;101716.57;105580;1296;25452;-75
2023/03/14 01:49:14;;;;;;;15.40;6.10;;;;;;;-2.07;100.00;101721.95;104734;1296;1003836;-74
2023/03/14 01:52:02;;;;;;;9.70;5.00;;;;;;;-2.09;100.00;101723.08;105674;1297;22641;-75
2023/03/14 01:54:45;;;;;;;14.00;5.40;;;;;;;-2.14;100.00;101720.04;104765;1296;1003095;-74
2023/03/14 01:57:33;;;;;;;11.30;5.20;;;;;;;-2.17;100.00;101721.92;104800;1297;1002933;-73
2023/03/14 02:00:14;;;;;;;10.50;4.80;;;;;;;-2.20;100.00;101721.48;105611;1297;25489;-74
2023/03/14 02:02:47;;;;;;;11.60;5.30;;;;;;;-2.24;100.00;101725.50;104541;1297;1003069;-76
2023/03/14 02:05:22;;;;;;;;;;;;;;;-2.28;100.00;101723.85;104952;1297;1003251;-74
2023/03/14 02:07:57;;;;;;;8.30;3.50;;;;;;;-2.31;100.00;101724.11;105570;1297;25462;-74
2023/03/14 02:10:32;;;;;;;8.90;3.30;;;;;;;-2.32;100.00;101721.84;104838;1297;1003344;-76
2023/03/14 02:13:03;;;;;;;3.90;3.20;;;;;;;-2.31;100.00;101725.34;105645;1297;25328;-74
2023/03/14 02:15:55;;;;;;;7.00;3.10;;;;;;;-2.31;100.00;101723.77;105144;1297;22549;-74
2023/03/14 02:18:53;;;;;;;7.50;3.20;;;;;;;-2.31;100.00;101729.40;104897;1297;1002998;-73
2023/03/14 02:22:10;;;;;;;9.10;3.40;;;;;;;-2.32;100.00;101728.55;105246;1297;26214;-73
2023/03/14 02:25:06;;;;;;;9.80;4.00;;;;;;;-2.33;100.00;101729.14;105494;1297;25494;-74
2023/03/14 02:27:40;;;;;;;7.60;3.60;;;;;;;-2.32;100.00;101727.66;105623;1297;25277;-74
2023/03/14 02:30:18;;;;;;;9.00;3.70;;;;;;;-2.31;100.00;101734.55;105183;1298;22573;-74
2023/03/14 02:32:48;;;;;;;7.30;3.50;;;;;;;-2.32;100.00;101734.21;104475;1298;1002947;-73
2023/03/14 02:35:21;;;;;;;8.20;3.20;;;;;;;-2.33;100.00;101731.93;105312;1298;26541;-72
2023/03/14 02:38:09;;;;;;;8.90;3.30;;;;;;;-2.35;100.00;101733.94;104469;1298;1003330;-73
2023/03/14 02:40:42;;;;;;;10.20;4.30;;;;;;;-2.38;100.00;101730.86;105227;1298;25372;-74
2023/03/14 02:43:11;;;;;;;11.70;4.80;;;;;;;-2.42;100.00;101732.94;104493;1298;1003014;-73
2023/03/14 02:45:46;;;;;;;9.50;3.70;;;;;;;-2.44;100.00;101736.00;105222;1298;25393;-75
2023/03/14 02:48:34;;;;;;;9.20;4.10;;;;;;;-2.46;100.00;101742.40;105279;1298;22607;-74
2023/03/14 02:51:02;;;;;;;7.50;3.40;;;;;;;-2.47;100.00;101741.91;104456;1298;1019095;-73
2023/03/14 02:53:33;;;;;;;8.00;3.30;;;;;;;-2.50;100.00;101743.20;105227;1298;26256;-73
2023/03/14 02:56:07;;;;;;;6.00;3.10;;;;;;;-2.52;100.00;101748.42;105370;1297;22570;-74
2023/03/14 02:58:37;;;;;;;7.40;3.30;;;;;;;-2.57;100.00;101747.49;104744;1297;1003055;-74
2023/03/14 03:01:14;;;;;;;7.90;3.60;;;;;;;-2.62;100.00;101746.05;105506;1297;27809;-73
2023/03/14 03:03:48;;;;;;;9.10;3.20;;;;;;;-2.67;100.00;101748.50;104749;1297;1003081;-72
2023/03/14 03:06:20;;;;;;;7.20;2.70;;;;;;;-2.70;100.00;101755.80;105552;1297;25427;-73
2023/03/14 03:08:49;;;;;;;8.60;3.00;;;;;;;-2.73;100.00;101763.49;105502;1297;22554;-73
2023/03/14 03:11:18;;;;;;;8.80;2.90;;;;;;;-2.77;100.00;101764.30;105487;1297;24231;-74
2023/03/14 03:13:47;;;;;;;8.20;2.50;;;;;;;-2.80;100.00;101770.90;104627;1297;1003677;-73
2023/03/14 03:16:21;;;;;;;7.90;2.80;;;;;;;-2.81;100.00;101772.89;104600;1297;1003621;-76
2023/03/14 03:18:52;;;;;;;5.30;3.20;;;;;;;-2.80;100.00;101773.02;104648;1297;1003752;-74
2023/03/14 03:21:23;;;;;;;6.80;3.00;;;;;;;-2.79;100.00;101777.61;105618;1297;25396;-73
2023/03/14 03:23:53;;;;;;;4.60;2.60;;;;;;;-2.78;100.00;101778.11;105283;1297;26592;-73
2023/03/14 03:26:23;;;;;;;7.10;2.90;;;;;;;-2.76;100.00;101777.87;105565;1297;23980;-72
2023/03/14 03:28:52;;;;;;;6.10;3.30;;;;;;;-2.74;100.00;101778.34;104733;1297;1003830;-72
2023/03/14 03:31:21;;;;;;;4.50;2.80;;;;;;;-2.73;100.00;101778.67;104895;1296;1003403;-73
2023/03/14 03:33:49;;;;;;;8.20;2.60;;;;;;;-2.72;100.00;101779.53;105707;1296;25459;-74
2023/03/14 03:36:22;;;;;;;8.10;3.20;;;;;;;-2.73;100.00;101782.18;105323;1296;1003210;-73
2023/03/14 03:38:51;;;;;;;5.30;2.90;;;;;;;-2.73;100.00;101781.67;105519;1296;22583;-73
2023/03/14 03:41:28;;;;;;;9.00;3.00;;;;;;;-2.74;100.00;101779.60;104696;1296;1003622;-73
2023/03/14 03:43:58;;;;;;;8.20;2.80;;;;;;;-2.75;100.00;101778.75;104885;1296;1003367;-74
2023/03/14 03:46:26;;;;;;;5.00;2.30;;;;;;;-2.77;100.00;101783.36;104935;1296;1002487;-74
2023/03/14 03:48:56;;;;;;;7.00;2.80;;;;;;;-2.78;100.00;101781.83;104806;1296;1003298;-74
2023/03/14 03:51:26;;;;;;;9.20;2.80;;;;;;;-2.78;100.00;101781.11;105433;1296;25446;-73
2023/03/14 03:53:56;;;;;;;9.00;2.90;;;;;;;-2.78;100.00;101781.30;105476;1296;23842;-73
2023/03/14 03:56:32;;;;;;;12.00;3.60;;;;;;;-2.78;100.00;101780.77;105471;1296;22634;-73
2023/03/14 03:59:04;;;;;;;10.30;4.40;;;;;;;-2.78;100.00;101782.19;105163;1296;1003408;-74
2023/03/14 04:01:35;;;;;;;5.90;3.20;;;;;;;-2.79;100.00;101781.12;108092;1296;25494;-73
2023/03/14 04:04:03;;;;;;;8.70;3.50;;;;;;;-2.78;100.00;101781.80;107162;1296;22622;-73
2023/03/14 04:06:34;;;;;;;5.80;2.90;;;;;;;-2.77;100.00;101776.30;105824;1296;25657;-74
2023/03/14 04:09:02;;;;;;;5.50;2.80;;;;;;;-2.75;100.00;101781.20;105526;1296;24107;-72
2023/03/14 04:11:54;;;;;;;5.90;2.80;;;;;;;-2.73;100.00;101778.84;104409;1296;1003224;-73
2023/03/14 04:14:23;;;;;;;13.00;3.70;;;;;;;-2.71;100.00;101781.43;104742;1296;1003051;-73
2023/03/14 04:17:12;;;;;;;11.20;4.30;;;;;;;-2.68;100.00;101785.24;104702;1296;1003096;-74
2023/03/14 04:19:43;;;;;;;10.20;4.00;;;;;;;-2.66;100.00;101784.13;104564;1296;1003530;-75
2023/03/14 04:22:13;;;;;;;6.50;3.70;;;;;;;-2.63;100.00;101782.64;104704;1296;1003012;-75
2023/03/14 04:24:48;;;;;;;8.30;4.00;;;;;;;-2.61;100.00;101782.76;105673;1296;26770;-72
2023/03/14 04:27:16;;;;;;;6.50;3.70;;;;;;;-2.59;100.00;101782.17;105708;1296;25295;-76
2023/03/14 04:29:47;;;;;;;9.30;4.50;;;;;;;-2.56;100.00;101783.14;105249;1296;26664;-74
2023/03/14 04:32:20;;;;;;;8.00;4.00;;;;;;;-2.54;100.00;101781.32;105709;1296;22556;-74
2023/03/14 04:34:48;;;;;;;6.90;3.40;;;;;;;-2.52;100.00;101779.50;105530;1296;24407;-72
2023/03/14 04:37:17;;;;;;;8.00;3.10;;;;;;;-2.49;100.00;101777.46;105480;1296;26690;-73
2023/03/14 04:39:46;;;;;;;7.70;3.40;;;;;;;-2.45;100.00;101779.10;104762;1296;1003772;-72
2023/03/14 04:42:26;;;;;;;5.70;2.70;;;;;;;-2.39;100.00;101782.46;104797;1296;1003502;-73
2023/03/14 04:44:55;;;;;;;6.40;2.80;;;;;;;-2.33;100.00;101782.29;105566;1296;22545;-74
2023/03/14 04:47:26;;;;;;;10.00;3.10;;;;;;;-2.29;100.00;101775.45;104910;1296;1002862;-74
2023/03/14 04:49:56;;;;;;;8.60;2.90;;;;;;;-2.23;100.00;101778.08;105419;1296;25348;-73
2023/03/14 04:52:27;;;;;;;13.30;3.40;;;;;;;-2.15;100.00;101775.23;105442;1296;26639;-74
2023/03/14 04:54:56;;;;;;;11.80;3.60;;;;;;;-2.07;100.00;101777.09;105541;1296;22500;-73
2023/03/14 04:57:29;;;;;;;10.10;3.90;;;;;;;-2.00;100.00;101776.15;105524;1296;26549;-73
2023/03/14 04:59:59;;;;;;;6.80;3.30;;;;;;;-1.91;100.00;101779.08;105434;1275;22555;-73
2023/03/14 05:02:48;;;;;;;6.30;3.40;;;;;;;-1.83;100.00;101778.30;104765;1296;1003745;-74
2023/03/14 05:05:37;;;;;;;5.70;3.40;;;;;;;-1.75;100.00;101773.95;105554;1296;25363;-75
2023/03/14 05:08:12;;;;;;;9.70;4.40;;;;;;;-1.65;100.00;101777.34;104999;1296;1005194;-73
2023/03/14 05:11:02;;;;;;;11.10;4.90;;;;;;;-1.53;100.00;101778.17;104537;1296;1002906;-73
2023/03/14 05:13:55;;;;;;;7.80;4.20;;;;;;;-1.40;100.00;101771.39;105313;1296;26549;-73
2023/03/14 05:16:34;;;;;;;8.70;4.00;;;;;;;-1.29;100.00;101770.65;105117;1296;1002960;-74
2023/03/14 05:19:17;;;;;;;22.20;7.70;;;;;;;-1.16;100.00;101770.91;104815;1296;1002880;-75
2023/03/14 05:22:04;;;;;;;15.70;6.80;;;;;;;-1.03;100.00;101764.98;104774;1296;1003442;-73
2023/03/14 05:25:01;;;;;;;17.10;7.00;;;;;;;-0.88;100.00;101759.34;105270;1296;24289;-75
2023/03/14 05:27:42;;;;;;;15.80;6.50;;;;;;;-0.74;100.00;101751.38;104686;1296;1003335;-75
2023/03/14 05:30:45;;;;;;;;;;;;;;;-0.58;100.00;101746.16;104674;1303;23766;-76
2023/03/14 05:33:20;;;;;;;18.50;8.30;;;;;;;-0.43;100.00;101742.77;104598;1296;1003248;-73
2023/03/14 05:36:03;;;;;;;14.20;6.50;;;;;;;-0.29;100.00;101737.63;105505;1296;22477;-74
2023/03/14 05:38:58;;;;;;;11.10;5.20;;;;;;;-0.13;100.00;101730.45;104759;1283;1003635;-75
2023/03/14 05:41:45;;;;;;;8.30;4.40;;;;;;;0.02;100.00;101720.80;104631;1296;1002915;-74
2023/03/14 05:44:40;;;;;;;11.30;4.50;;;;;;;0.15;100.00;101691.55;105556;1296;25465;-75
2023/03/14 05:47:18;;;;;;;10.30;4.00;;;;;;;0.27;100.00;101674.19;105520;1296;26550;-75
2023/03/14 05:50:13;;;;;;;6.60;3.50;;;;;;;0.43;100.00;101655.79;104627;1296;1003173;-76
2023/03/14 05:53:02;;;;;;;8.70;3.90;;;;;;;0.57;100.00;101637.77;105282;1296;25413;-75
2023/03/14 05:55:53;;;;;;;12.60;4.30;;;;;;;0.71;100.00;101615.30;104792;1296;1002701;-76
2023/03/14 05:58:54;;;;;;;8.10;4.80;;;;;;;0.90;100.00;101596.90;105496;1296;22541;-72
2023/03/14 06:01:43;;;;;;;11.80;6.80;;;;;;;1.07;100.00;101568.02;105883;1296;24288;-74
2023/03/14 06:04:21;;;;;;;14.00;6.80;;;;;;;1.24;100.00;101526.94;105577;1296;26059;-72
2023/03/14 06:06:54;;;;;;;27.60;11.30;;;;;;;1.39;100.00;101486.55;104178;1293;1003036;-73
2023/03/14 06:09:23;;;;;;;27.20;11.70;;;;;;;1.54;100.00;101440.30;104861;1296;1003059;-73
2023/03/14 06:11:59;;;;;;;33.40;14.60;;;;;;;1.71;100.00;101407.77;105730;1296;23840;-74
2023/03/14 06:14:28;;;;;;;19.40;8.10;;;;;;;1.91;100.00;101382.75;105438;1296;1002502;-75
2023/03/14 06:17:03;;;;;;;12.90;5.90;;;;;;;2.11;100.00;101340.01;105455;1296;1002627;-71
2023/03/14 06:19:37;;;;;;;20.50;7.40;;;;;;;2.25;100.00;101143.52;105693;1296;22656;-74
2023/03/14 06:22:07;;;;;;;8.00;4.10;;;;;;;2.39;100.00;101108.70;106278;1296;22852;-72
2023/03/14 06:24:41;;;;;;;9.20;4.50;;;;;;;2.53;100.00;101082.39;106569;1296;24139;-69
2023/03/14 06:27:30;;;;;;;11.50;4.30;;;;;;;2.70;100.00;101060.35;105678;1296;22562;-73
2023/03/14 06:30:03;;;;;;;12.40;5.10;;;;;;;2.91;100.00;101047.50;105624;1296;26709;-75
2023/03/14 06:32:33;;;;;;;13.60;5.60;;;;;;;3.09;100.00;101024.27;105493;1296;25467;-70
2023/03/14 06:35:06;;;;;;;13.50;5.30;;;;;;;3.22;100.00;100991.84;106379;1296;1002669;-72
2023/03/14 06:37:39;;;;;;;9.00;3.70;;;;;;;3.40;100.00;100976.63;108156;1289;25484;-72
2023/03/14 06:40:16;;;;;;;6.80;3.50;;;;;;;3.55;100.00;100944.80;106305;1296;1003438;-72
2023/03/14 06:43:08;;;;;;;7.50;3.70;;;;;;;3.70;100.00;100905.81;105464;1289;24227;-74
2023/03/14 06:45:38;;;;;;;11.80;4.30;;;;;;;3.88;100.00;100920.02;105700;1290;25437;-73
2023/03/14 06:48:08;;;;;;;11.00;3.80;;;;;;;4.09;100.00;100905.18;105559;1289;25355;-74
2023/03/14 06:50:51;;;;;;;8.30;3.20;;;;;;;4.37;100.00;100893.77;104807;1289;1003825;-72
2023/03/14 06:53:26;;;;;;;14.40;4.60;;;;;;;4.61;100.00;100898.98;105072;1289;1003410;-74
2023/03/14 06:55:55;;;;;;;13.30;4.50;;;;;;;4.82;100.00;100874.40;105735;1288;25385;-72
2023/03/14 06:58:26;;;;;;;8.40;4.00;;;;;;;5.08;100.00;100865.32;105515;1289;22792;-73
2023/03/14 07:00:57;;;;;;;13.00;4.80;;;;;;;5.26;100.00;100832.38;105421;1296;23684;-73
2023/03/14 07:03:27;;;;;;;22.00;4.70;;;;;;;5.40;100.00;100806.45;105500;1288;25409;-75
2023/03/14 07:06:02;;;;;;;9.00;4.10;;;;;;;5.56;100.00;100788.36;105842;1296;25451;-76
2023/03/14 07:08:34;;;;;;;11.00;4.60;;;;;;;5.77;100.00;100784.20;106051;1293;25466;-73
2023/03/14 07:11:03;;;;;;;7.20;3.50;;;;;;;5.98;100.00;100761.49;105327;1292;25328;-73
2023/03/14 07:13:36;;;;;;;10.10;4.50;;;;;;;6.14;100.00;100743.20;106524;1292;22632;-72
2023/03/14 07:16:08;;;;;;;6.60;3.70;;;;;;;6.30;100.00;100723.27;106196;1293;25526;-72
2023/03/14 07:18:38;;;;;;;10.40;3.60;;;;;;;6.43;100.00;100705.36;105615;1289;22552;-75
2023/03/14 07:21:12;;;;;;;8.10;3.90;;;;;;;6.50;100.00;100665.55;105897;1289;27122;-75
2023/03/14 07:23:53;;;;;;;7.80;3.70;;;;;;;6.60;100.00;100653.72;106527;1296;22550;-73
2023/03/14 07:26:23;;;;;;;22.80;9.20;;;;;;;6.75;100.00;100638.15;105970;1296;26776;-77
2023/03/14 07:28:52;;;;;;;13.50;5.80;;;;;;;6.93;100.00;100633.22;105604;1296;23801;-72
2023/03/14 07:31:23;;;;;;;7.20;3.50;;;;;;;7.09;100.00;100616.58;106034;1296;23845;-75
2023/03/14 07:33:53;;;;;;;5.10;3.10;;;;;;;7.19;100.00;100572.12;105836;1296;24208;-77
2023/03/14 07:36:23;;;;;;;9.10;3.70;;;;;;;7.05;100.00;100497.19;105375;1290;1003597;-78
2023/03/14 07:38:53;;;;;;;11.10;4.40;;;;;;;6.96;100.00;100437.03;106201;1289;22717;-76
2023/03/14 07:41:42;;;;;;;12.50;4.60;;;;;;;6.85;100.00;100336.64;107140;1292;24047;-74
2023/03/14 07:44:31;;;;;;;14.50;5.50;;;;;;;6.93;100.00;100381.41;105906;1289;24299;-72
2023/03/14 07:47:00;;;;;;;12.60;4.40;;;;;;;7.07;100.00;100397.11;105075;1296;1002739;-77
2023/03/14 07:49:46;;;;;;;9.80;4.70;;;;;;;7.34;100.00;100388.60;108043;1289;22611;-82
2023/03/14 07:52:24;;;;;;;14.20;4.10;;;;;;;7.71;100.00;100322.12;107528;1296;22663;-79
2023/03/14 07:54:53;;;;;;;10.00;4.20;;;;;;;8.10;100.00;100296.36;105720;1292;25477;-79
2023/03/14 07:57:22;;;;;;;18.90;4.10;;;;;;;8.30;100.00;100239.13;105842;1296;22554;-80
2023/03/14 07:59:51;;;;;;;9.70;4.00;;;;;;;8.32;100.00;100205.14;106564;1297;22660;-83
2023/03/14 08:02:22;;;;;;;13.80;5.10;;;;;;;8.22;100.00;100179.71;105182;1290;1004232;-76
2023/03/14 08:04:53;;;;;;;18.60;6.40;;;;;;;8.16;100.00;100169.19;105902;1293;26709;-78
2023/03/14 08:07:22;;;;;;;8.10;4.30;;;;;;;8.26;100.00;100157.67;105608;1289;22774;-79
2023/03/14 08:09:59;;;;;;;34.40;13.90;;;;;;;8.30;100.00;100138.34;106256;1296;24244;-81
2023/03/14 08:12:28;;;;;;;21.70;13.50;;;;;;;8.46;100.00;100129.18;106615;1296;22553;-83
2023/03/14 08:14:59;;;;;;;17.90;6.30;;;;;;;8.70;100.00;100083.85;106747;1296;22747;-80
2023/03/14 08:17:33;;;;;;;10.40;4.70;;;;;;;8.91;100.00;100042.98;107016;1292;22541;-80
2023/03/14 08:20:07;;;;;;;9.00;4.50;;;;;;;9.28;100.00;100041.20;106567;1290;22596;-80
2023/03/14 08:22:39;;;;;;;16.70;5.00;;;;;;;9.52;100.00;99948.64;106059;1296;22687;-81
2023/03/14 08:25:17;;;;;;;12.90;4.80;;;;;;;9.69;100.00;99835.59;106564;1296;22566;-81
2023/03/14 08:27:47;;;;;;;10.70;4.40;;;;;;;9.71;100.00;99783.08;106872;1296;23955;-80
2023/03/14 08:30:18;;;;;;;8.60;4.20;;;;;;;9.70;100.00;99741.65;106037;1295;22850;-81
2023/03/14 08:32:48;;;;;;;12.00;5.30;;;;;;;9.53;100.00;99723.88;107297;1290;22656;-84
2023/03/14 08:35:53;;;;;;;20.50;6.10;;;;;;;9.47;100.00;99721.03;108496;1296;22561;-81
2023/03/14 08:39:14;;;;;;;10.60;4.50;;;;;;;9.56;100.00;99737.13;107059;1296;24313;-80
2023/03/14 08:42:10;;;;;;;11.70;5.50;;;;;;;9.40;100.00;99724.52;107509;1296;22031;-82
2023/03/14 08:44:51;;;;;;;16.20;7.90;;;;;;;9.36;100.00;99720.05;107425;1296;22703;-81
2023/03/14 08:47:28;;;;;;;19.90;8.00;;;;;;;9.47;100.00;99697.77;107824;1296;22522;-81
2023/03/14 08:50:13;;;;;;;25.20;9.70;;;;;;;9.73;100.00;99636.14;107699;1296;22623;-83
2023/03/14 08:52:44;;;;;;;19.60;8.30;;;;;;;9.82;100.00;99587.98;106799;1273;23020;-80
2023/03/14 08:55:12;;;;;;;17.50;6.60;;;;;;;9.86;100.00;99565.34;107273;1296;22617;-82
2023/03/14 08:57:44;;;;;;;14.60;5.30;;;;;;;10.00;100.00;99532.30;106513;1296;24016;-82
2023/03/14 09:00:15;;;;;;;12.20;5.00;;;;;;;10.07;100.00;99475.56;106307;1293;24438;-82
2023/03/14 09:02:45;;;;;;;10.60;5.20;;;;;;;9.96;100.00;99469.68;106898;1291;22618;-80
2023/03/14 09:05:14;;;;;;;10.00;5.50;;;;;;;9.81;100.00;99450.34;105933;1292;22626;-79
2023/03/14 09:07:44;;;;;;;12.50;5.00;;;;;;;9.79;100.00;99412.13;105626;1292;25443;-76
2023/03/14 09:10:13;;;;;;;18.30;5.80;;;;;;;9.80;100.00;99373.09;105559;1296;24284;-78
2023/03/14 09:12:42;;;;;;;13.90;5.00;;;;;;;9.79;100.00;99315.47;106431;1290;26605;-80
2023/03/14 09:15:11;;;;;;;13.80;4.90;;;;;;;9.62;100.00;99272.80;107399;1291;22671;-83
2023/03/14 09:17:43;;;;;;;13.90;6.70;;;;;;;9.47;100.00;99223.16;106448;1274;22681;-78
2023/03/14 09:20:14;;;;;;;16.60;5.90;;;;;;;9.67;100.00;99164.98;105857;1292;25496;-74
2023/03/14 09:22:44;;;;;;;11.80;5.40;;;;;;;9.92;100.00;99147.70;107089;1290;23790;-83
2023/03/14 09:25:14;;;;;;;14.60;5.70;;;;;;;9.83;100.00;99142.89;107014;1292;25431;-81
2023/03/14 09:27:47;;;;;;;12.90;6.00;;;;;;;9.79;100.00;99117.25;106447;1296;25445;-81
2023/03/14 09:30:17;;;;;;;12.40;5.40;;;;;;;9.71;100.00;99079.45;106151;1289;26522;-79
2023/03/14 09:32:46;;;;;;;17.60;5.70;;;;;;;9.69;100.00;99043.53;105534;1289;24267;-74
2023/03/14 09:35:17;;;;;;;13.00;5.40;;;;;;;9.72;100.00;99028.58;105420;1297;24265;-74
2023/03/14 09:37:47;;;;;;;12.80;5.50;;;;;;;9.79;100.00;98996.76;106219;1289;26652;-85
2023/03/14 09:40:20;;;;;;;;;;;;;;;9.94;100.00;98986.20;106228;1295;24351;-80
2023/03/14 09:43:16;;;;;;;16.00;6.40;;;;;;;10.29;100.00;98982.58;106416;1290;1002580;-82
2023/03/14 09:45:56;;;;;;;13.90;5.40;;;;;;;10.62;100.00;99021.11;107590;1296;25458;-81
2023/03/14 09:48:27;;;;;;;11.40;5.40;;;;;;;10.79;100.00;99039.62;106499;1296;25451;-81
2023/03/14 09:50:57;;;;;;;25.00;10.50;;;;;;;10.83;100.00;99050.14;106734;1290;22504;-79
2023/03/14 09:53:43;;;;;;;13.50;6.00;;;;;;;11.06;100.00;99048.75;106865;1290;24241;-81
2023/03/14 09:56:24;;;;;;;12.80;5.30;;;;;;;11.35;100.00;99077.48;106900;1289;22714;-76
2023/03/14 09:59:01;;;;;;;11.70;5.40;;;;;;;11.37;100.00;99162.39;105926;1296;25654;-78
2023/03/14 10:01:31;;;;;;;14.70;5.20;;;;;;;11.28;100.00;99158.89;105936;1289;22675;-82
2023/03/14 10:04:06;;;;;;;10.90;4.90;;;;;;;11.50;100.00;99178.55;106108;1296;25481;-78
2023/03/14 10:06:36;;;;;;;17.40;5.50;;;;;;;11.61;100.00;99277.39;105970;1292;26519;-85
2023/03/14 10:09:14;;;;;;;11.70;5.00;;;;;;;11.64;100.00;99279.84;106503;1296;25454;-85
2023/03/14 10:11:49;;;;;;;10.30;5.60;;;;;;;11.86;100.00;99258.16;106227;1297;22555;-80
2023/03/14 10:14:34;;;;;;;12.50;5.20;;;;;;;12.05;100.00;99313.62;105550;1296;25461;-74
2023/03/14 10:17:11;;;;;;;13.90;6.10;;;;;;;11.96;100.00;99391.34;105971;1293;22545;-81
2023/03/14 10:19:57;;;;;;;8.10;4.70;;;;;;;12.00;100.00;99405.20;105963;1296;22546;-84
2023/03/14 10:22:31;;;;;;;14.90;4.60;;;;;;;12.00;100.00;99442.26;105626;1290;23926;-74
2023/03/14 10:25:07;;;;;;;13.60;5.90;;;;;;;12.17;100.00;99459.52;105471;1297;26536;-75
2023/03/14 10:27:37;;;;;;;8.10;4.50;;;;;;;12.34;100.00;99536.00;105453;1292;22565;-78
2023/03/14 10:30:14;;;;;;;14.70;6.00;;;;;;;12.30;100.00;99625.56;105787;1296;22549;-77
2023/03/14 10:32:43;;;;;;;15.30;5.90;;;;;;;12.43;100.00;99620.15;105837;1296;25460;-79
2023/03/14 10:35:15;;;;;;;32.00;7.80;;;;;;;12.60;100.00;99679.56;105385;1287;22539;-76
2023/03/14 10:37:56;;;;;;;12.50;5.00;;;;;;;12.79;100.00;99722.11;106439;1296;22644;-81
2023/03/14 10:40:30;;;;;;;12.30;5.20;;;;;;;12.87;100.00;99850.67;107605;1296;22669;-77
2023/03/14 10:43:00;;;;;;;21.10;6.00;;;;;;;13.00;100.00;99872.96;107833;1296;22549;-86
2023/03/14 10:45:38;;;;;;;21.80;6.50;;;;;;;13.25;100.00;99898.42;106886;1296;22216;-86
2023/03/14 10:48:42;;;;;;;17.00;6.10;;;;;;;13.42;100.00;99930.94;108111;1296;22245;-85
2023/03/14 10:51:46;;;;;;;11.30;4.90;;;;;;;13.63;100.00;99992.02;108201;1297;22231;-79
2023/03/14 10:54:57;;;;;;;10.70;5.00;;;;;;;13.55;100.00;100102.96;108773;1297;22518;-80
2023/03/14 10:57:36;;;;;;;11.90;5.30;;;;;;;13.44;100.00;100149.04;108517;1289;22818;-74
2023/03/14 11:00:22;;;;;;;13.40;5.00;;;;;;;13.54;100.00;100213.66;107264;1293;23344;-74
2023/03/14 11:03:52;;;;;;;;;;;;;;;;;;;;;
2023/03/14 11:07:03;;;;;;;9.00;4.30;;;;;;;13.26;100.00;100351.28;107352;1301;23334;-72
2023/03/14 11:09:59;;;;;;;16.70;8.00;;;;;;;13.36;100.00;100360.30;105615;1301;23897;-74
2023/03/14 11:12:41;;;;;;;14.90;6.40;;;;;;;13.42;100.00;100362.71;106372;1301;22564;-76
2023/03/14 11:15:27;;;;;;;10.00;5.60;;;;;;;13.52;100.00;100365.77;106378;1301;22595;-77
2023/03/14 11:18:27;;;;;;;15.30;6.50;;;;;;;13.52;100.00;100393.65;106458;1295;22602;-74
2023/03/14 11:21:19;;;;;;;23.80;8.00;;;;;;;13.37;100.00;100401.54;106601;1298;22545;-71
2023/03/14 11:24:23;;;;;;;17.30;6.50;;;;;;;13.19;100.00;100412.17;106194;1294;22589;-74
2023/03/14 11:26:54;;;;;;;14.30;6.90;;;;;;;13.00;100.00;100410.45;105218;1301;26006;-72
2023/03/14 11:29:38;;;;;;;22.00;7.80;;;;;;;12.90;100.00;100406.67;103507;1301;1003571;-73
2023/03/14 11:32:14;;;;;;;29.30;15.70;;;;;;;12.75;100.00;100397.21;105231;1297;22502;-73
2023/03/14 11:34:44;;;;;;;22.90;9.50;;;;;;;12.66;100.00;100401.01;105426;1301;22546;-72
2023/03/14 11:37:25;;;;;;;14.80;7.60;;;;;;;12.62;100.00;100397.02;104961;1301;22764;-70
2023/03/14 11:40:00;;;;;;;14.60;5.60;;;;;;;12.63;100.00;100393.43;104953;1294;26711;-71
2023/03/14 11:42:32;;;;;;;17.60;5.20;;;;;;;12.78;100.00;100382.00;105233;1295;25406;-74
2023/03/14 11:45:01;;;;;;;11.90;5.30;;;;;;;12.94;100.00;100380.48;105003;1295;23793;-76
2023/03/14 11:47:37;;;;;;;11.60;5.20;;;;;;;12.90;100.00;100386.92;107160;1300;22676;-75